createdAt,value
2018-12-01T00:04:59.414Z,60.33
2018-12-01T00:10:01.771Z,62.47
2018-12-01T00:15:05.437Z,54.77
2018-12-01T00:20:11.848Z,60.47
2018-12-01T00:25:13.907Z,63.23
2018-12-01T00:30:17.606Z,63.57
2018-12-01T00:35:19.961Z,67.57
2018-12-01T00:40:22.135Z,71.23
2018-12-01T00:45:24.150Z,58.33
2018-12-01T00:50:26.189Z,61.63
2018-12-01T00:55:28.293Z,64.47
2018-12-01T01:00:30.386Z,56.47
2018-12-01T01:05:32.410Z,59.43
2018-12-01T01:10:34.781Z,54.10
2018-12-01T01:15:36.722Z,56.03
2018-12-01T01:20:38.764Z,54.67
2018-12-01T01:31:16.470Z,53.53
2018-12-01T01:36:18.537Z,55.80
2018-12-01T01:41:20.587Z,52.70
2018-12-01T01:46:22.598Z,56.60
2018-12-01T01:51:24.649Z,52.57
2018-12-01T01:56:26.777Z,54.73
2018-12-01T02:01:28.830Z,51.73
2018-12-01T02:06:30.866Z,52.73
2018-12-01T02:11:32.933Z,53.23
2018-12-01T02:16:34.957Z,53.57
2018-12-01T02:21:36.982Z,53.50
2018-12-01T02:26:39.063Z,58.83
2018-12-01T02:31:41.171Z,54.03
2018-12-01T02:36:43.231Z,55.43
2018-12-01T02:41:45.300Z,51.80
2018-12-01T02:46:58.952Z,64.03
2018-12-01T02:52:01.062Z,53.77
2018-12-01T02:57:10.197Z,52.07
2018-12-01T03:02:12.295Z,51.70
2018-12-01T03:07:14.538Z,49.70
2018-12-01T03:12:16.575Z,52.50
2018-12-01T03:17:18.639Z,53.87
2018-12-01T03:22:21.078Z,47.90
2018-12-01T03:27:23.125Z,59.23
2018-12-01T03:32:25.272Z,57.80
2018-12-01T03:37:27.316Z,53.47
2018-12-01T03:42:29.662Z,57.03
2018-12-01T03:47:32.559Z,50.30
2018-12-01T03:52:34.634Z,52.90
2018-12-01T03:57:36.742Z,54.10
2018-12-01T04:02:38.998Z,52.00
2018-12-01T04:07:41.076Z,53.77
2018-12-01T04:12:43.074Z,47.53
2018-12-01T04:17:45.989Z,51.53
2018-12-01T04:22:48.021Z,49.17
2018-12-01T04:27:50.053Z,46.73
2018-12-01T04:32:52.510Z,47.57
2018-12-01T04:37:55.509Z,50.37
2018-12-01T04:42:58.308Z,47.63
2018-12-01T04:48:00.349Z,46.40
2018-12-01T04:53:03.294Z,48.43
2018-12-01T04:58:05.462Z,52.17
2018-12-01T05:03:07.882Z,55.20
2018-12-01T05:08:09.934Z,54.50
2018-12-01T05:13:11.986Z,52.43
2018-12-01T05:18:14.003Z,53.17
2018-12-01T05:23:16.050Z,50.03
2018-12-01T05:28:18.058Z,50.27
2018-12-01T05:33:20.448Z,51.13
2018-12-01T05:38:22.513Z,51.33
2018-12-01T05:43:24.516Z,57.30
2018-12-01T05:48:26.745Z,57.10
2018-12-01T05:53:29.170Z,57.43
2018-12-01T05:58:31.186Z,57.27
2018-12-01T06:03:33.236Z,61.03
2018-12-01T06:08:36.114Z,59.13
2018-12-01T06:13:38.125Z,54.83
2018-12-01T06:18:40.125Z,56.87
2018-12-01T06:23:42.169Z,49.83
2018-12-01T06:28:44.394Z,51.03
2018-12-01T06:33:46.503Z,51.50
2018-12-01T06:38:48.565Z,53.03
2018-12-01T06:43:51.118Z,47.77
2018-12-01T06:48:53.145Z,56.27
2018-12-01T06:53:55.326Z,56.17
2018-12-01T06:58:57.645Z,50.47
2018-12-01T07:03:59.779Z,52.97
2018-12-01T07:09:02.004Z,52.17
2018-12-01T07:14:04.379Z,48.73
2018-12-01T07:19:16.226Z,54.83
2018-12-01T07:24:18.334Z,61.10
2018-12-01T07:29:20.378Z,50.60
2018-12-01T07:34:22.414Z,53.60
2018-12-01T07:39:24.890Z,49.77
2018-12-01T07:44:26.919Z,46.83
2018-12-01T07:49:29.744Z,52.47
2018-12-01T07:54:32.157Z,51.67
2018-12-01T07:59:34.486Z,45.50
2018-12-01T08:04:36.530Z,48.73
2018-12-01T08:09:38.760Z,44.03
2018-12-01T08:14:40.757Z,49.73
2018-12-01T08:19:42.768Z,47.77
2018-12-01T08:24:44.817Z,46.33
2018-12-01T08:29:46.825Z,44.13
2018-12-01T08:34:49.394Z,38.90
2018-12-01T08:39:52.532Z,43.43
2018-12-01T08:44:54.541Z,39.37
2018-12-01T08:49:56.562Z,42.27
2018-12-01T08:54:58.621Z,39.50
2018-12-01T09:00:00.629Z,40.13
2018-12-01T09:05:02.656Z,35.70
2018-12-01T09:10:06.727Z,35.00
2018-12-01T09:15:09.794Z,34.83
2018-12-01T09:20:12.618Z,32.63
2018-12-01T09:25:15.855Z,35.83
2018-12-01T09:30:20.043Z,29.57
2018-12-01T09:35:22.137Z,32.53
2018-12-01T09:40:24.254Z,28.07
2018-12-01T09:45:26.314Z,30.17
2018-12-01T09:50:29.060Z,28.90
2018-12-01T09:55:31.405Z,24.60
2018-12-01T10:00:33.454Z,22.50
2018-12-01T10:05:36.221Z,21.50
2018-12-01T10:10:38.800Z,20.73
2018-12-01T10:15:41.799Z,28.07
2018-12-01T10:20:45.414Z,20.07
2018-12-01T10:25:47.573Z,21.50
2018-12-01T10:30:50.747Z,19.33
2018-12-01T10:35:56.086Z,20.47
2018-12-01T10:40:59.785Z,14.27
2018-12-01T10:46:01.792Z,16.93
2018-12-01T10:51:03.860Z,17.43
2018-12-01T10:56:05.997Z,13.60
2018-12-01T11:01:13.757Z,16.47
2018-12-01T11:06:17.193Z,18.90
2018-12-01T11:11:19.283Z,19.30
2018-12-01T11:16:21.346Z,14.93
2018-12-01T11:21:23.404Z,15.10
2018-12-01T11:26:25.504Z,13.17
2018-12-01T11:31:28.058Z,13.23
2018-12-01T11:36:30.209Z,15.40
2018-12-01T11:41:32.274Z,13.50
2018-12-01T11:46:34.465Z,13.70
2018-12-01T11:51:36.535Z,11.03
2018-12-01T11:56:38.646Z,10.50
2018-12-01T12:01:40.731Z,13.03
2018-12-01T12:11:52.521Z,13.53
2018-12-01T12:16:54.612Z,12.73
2018-12-01T12:21:56.681Z,11.80
2018-12-01T12:26:59.139Z,13.40
2018-12-01T12:32:01.255Z,13.77
2018-12-01T12:37:03.504Z,10.83
2018-12-01T12:42:05.550Z,13.67
2018-12-01T12:47:07.593Z,10.77
2018-12-01T12:52:09.601Z,12.47
2018-12-01T12:57:11.638Z,9.07
2018-12-01T13:02:13.657Z,14.40
2018-12-01T13:07:15.661Z,13.80
2018-12-01T13:12:17.710Z,12.70
2018-12-01T13:17:19.944Z,15.20
2018-12-01T13:22:21.963Z,14.07
2018-12-01T13:27:24.201Z,12.73
2018-12-01T13:32:26.554Z,14.27
2018-12-01T13:37:28.682Z,14.27
2018-12-01T13:42:31.058Z,15.37
2018-12-01T13:47:33.074Z,13.50
2018-12-01T13:52:35.133Z,12.43
2018-12-01T13:57:37.506Z,14.37
2018-12-01T14:02:39.546Z,12.80
2018-12-01T14:07:41.608Z,11.23
2018-12-01T14:12:44.901Z,11.60
2018-12-01T14:17:47.802Z,12.37
2018-12-01T14:22:50.150Z,10.27
2018-12-01T14:27:56.678Z,8.80
2018-12-01T14:32:58.793Z,10.90
2018-12-01T14:38:08.303Z,12.53
2018-12-01T14:43:10.523Z,13.77
2018-12-01T14:48:12.626Z,9.80
2018-12-01T14:53:15.569Z,9.50
2018-12-01T14:58:17.654Z,9.00
2018-12-01T15:03:19.755Z,9.40
2018-12-01T15:08:21.774Z,11.57
2018-12-01T15:13:23.864Z,11.27
2018-12-01T15:18:25.926Z,10.03
2018-12-01T15:29:02.561Z,7.73
2018-12-01T15:34:04.970Z,10.80
2018-12-01T15:39:09.624Z,10.97
2018-12-01T15:44:11.701Z,8.60
2018-12-01T15:49:13.764Z,8.93
2018-12-01T15:54:15.877Z,9.60
2018-12-01T15:59:17.955Z,10.80
2018-12-01T16:04:20.109Z,13.57
2018-12-01T16:09:22.189Z,11.93
2018-12-01T16:14:24.462Z,9.13
2018-12-01T16:19:26.495Z,15.63
2018-12-01T16:24:28.526Z,22.10
2018-12-01T16:29:30.905Z,12.53
2018-12-01T16:34:33.049Z,14.43
2018-12-01T16:39:35.470Z,9.70
2018-12-01T16:44:37.522Z,11.83
2018-12-01T16:49:39.545Z,13.23
2018-12-01T16:54:41.593Z,12.43
2018-12-01T16:59:43.646Z,9.40
2018-12-01T17:04:45.666Z,13.20
2018-12-01T17:09:47.701Z,17.90
2018-12-01T17:14:49.777Z,13.07
2018-12-01T17:19:51.814Z,13.87
2018-12-01T17:24:53.842Z,15.97
2018-12-01T17:29:55.857Z,13.00
2018-12-01T17:34:58.295Z,20.37
2018-12-01T17:40:00.370Z,12.97
2018-12-01T17:45:02.423Z,37.47
2018-12-01T17:50:09.160Z,26.57
2018-12-01T17:55:12.613Z,18.47
2018-12-01T18:00:16.237Z,21.23
2018-12-01T18:05:22.526Z,25.03
2018-12-01T18:10:24.526Z,18.77
2018-12-01T18:15:26.597Z,23.37
2018-12-01T18:20:28.590Z,17.10
2018-12-01T18:25:32.985Z,24.40
2018-12-01T18:30:36.333Z,24.27
2018-12-01T18:35:38.480Z,26.93
2018-12-01T18:40:40.494Z,20.73
2018-12-01T18:45:44.394Z,22.70
2018-12-01T18:50:46.653Z,24.50
2018-12-01T18:55:55.113Z,23.03
2018-12-01T19:00:57.343Z,23.70
2018-12-01T19:05:59.562Z,23.27
2018-12-01T19:11:01.626Z,33.90
2018-12-01T19:16:03.681Z,27.10
2018-12-01T19:21:05.758Z,32.90
2018-12-01T19:26:08.179Z,23.80
2018-12-01T19:31:10.401Z,24.23
2018-12-01T19:36:12.453Z,28.50
2018-12-01T19:41:14.547Z,27.00
2018-12-01T19:46:16.570Z,24.00
2018-12-01T19:51:18.573Z,21.60
2018-12-01T19:56:20.582Z,24.43
2018-12-01T20:01:22.586Z,21.27
2018-12-01T20:06:24.707Z,23.87
2018-12-01T20:11:26.753Z,23.73
2018-12-01T20:16:31.333Z,24.67
2018-12-01T20:21:33.332Z,31.00
2018-12-01T20:26:36.005Z,22.77
2018-12-01T20:31:38.527Z,28.03
2018-12-01T20:36:46.844Z,27.67
2018-12-01T20:41:48.878Z,31.27
2018-12-01T20:46:50.928Z,29.00
2018-12-01T20:51:53.625Z,29.23
2018-12-01T20:56:59.697Z,31.90
2018-12-01T21:02:01.736Z,27.53
2018-12-01T21:07:03.813Z,33.93
2018-12-01T21:12:07.246Z,28.87
2018-12-01T21:17:09.285Z,35.33
2018-12-01T21:22:11.321Z,30.60
2018-12-01T21:27:13.699Z,29.97
2018-12-01T21:32:15.735Z,32.63
2018-12-01T21:37:17.818Z,27.60
2018-12-01T21:42:19.871Z,27.00
2018-12-01T21:47:21.928Z,27.70
2018-12-01T21:52:23.937Z,27.57
2018-12-01T21:57:25.971Z,25.63
2018-12-01T22:02:28.005Z,27.20
2018-12-01T22:07:30.191Z,25.73
2018-12-01T22:12:32.222Z,25.07
2018-12-01T22:17:34.254Z,28.27
2018-12-01T22:22:36.254Z,24.20
2018-12-01T22:27:38.491Z,26.77
2018-12-01T22:32:40.566Z,27.90
2018-12-01T22:37:42.710Z,27.17
2018-12-01T22:42:44.790Z,24.80
2018-12-01T22:47:46.829Z,23.80
2018-12-01T22:52:49.476Z,28.00
2018-12-01T22:57:54.192Z,22.50
2018-12-01T23:02:56.706Z,24.13
2018-12-01T23:07:58.797Z,23.47
2018-12-01T23:13:00.866Z,21.80
2018-12-01T23:18:04.181Z,23.47
2018-12-01T23:23:06.395Z,22.43
2018-12-01T23:28:08.448Z,26.47
2018-12-01T23:33:12.682Z,26.37
2018-12-01T23:38:15.437Z,26.97
2018-12-01T23:43:17.750Z,19.27
2018-12-01T23:48:19.821Z,23.13
2018-12-01T23:53:22.766Z,22.00
2018-12-01T23:58:24.813Z,21.97
